Impacts METAR Board
IDs:

KTPA - Tampa Intl Arpt, FL, US

Updated at: 1400 UTC 25 Jun 2019
Potential Impact None Slight Moderate High
Time 25/02Z 25/03Z 25/04Z 25/05Z 25/06Z 25/07Z 25/08Z 25/09Z 25/10Z 25/11Z 25/12Z 25/13Z 25/14Z
Temp84 83 83 83 82 81 81 81 81 82 83 86 87
Dewpt75 75 75 74 75 75 76 76 76 76 77 78 78
Altim30.05 30.06 30.06 30.05 30.03 30.02 30.01 30.02 30.04 30.05 30.06 30.08 30.08
VIS10 10 10 10 10 10 10 10 10 10 10 10 10
CIG-- -- -- -- -- -- -- -- -- -- -- -- --
CoverCLRCLRCLRCLRSCTSCTFEWFEWSCTFEWCLRCLRFEW
FltCatVFRVFRVFRVFRVFRVFRVFRVFRVFRVFRVFRVFRVFR
WX--------------------------
WDir29031031032032000310320320320310320
WSpd5 5 3 4 3 0 0 3 3 3 5 7 7
WGst-- -- -- -- -- -- -- -- -- -- -- -- --
Raw hourly METARs
KTPA 250153Z 29005KT 10SM CLR 29/24 A3005 RMK AO2 SLP173 T02890239 $
KTPA 250253Z 31005KT 10SM CLR 28/24 A3006 RMK AO2 SLP179 T02830239 53012 $
KTPA 250353Z 31003KT 10SM CLR 28/24 A3006 RMK AO2 SLP178 T02830239 $
KTPA 250453Z 32004KT 10SM CLR 28/23 A3005 RMK AO2 SLP174 T02830233 403440256 $
KTPA 250553Z 32003KT 10SM SCT300 28/24 A3003 RMK AO2 SLP169 T02780239 58010 $
KTPA 250653Z 00000KT 10SM SCT300 27/24 A3002 RMK AO2 SLP164 T02720239 $
KTPA 250753Z 00000KT 10SM FEW300 27/24 A3001 RMK AO2 SLP162 T02720244 $
KTPA 250853Z 31003KT 10SM FEW300 27/24 A3002 RMK AO2 SLP164 T02720244 55005 $
KTPA 250953Z 32003KT 10SM SCT320 27/24 A3004 RMK AO2 SLP171 T02720244 $
KTPA 251053Z 32003KT 10SM FEW340 28/24 A3005 RMK AO2 SLP176 T02780244
KTPA 251153Z 32005KT 10SM CLR 28/25 A3006 RMK AO2 SLP179 T02830250 10289 20267 51016
KTPA 251253Z 31007KT 10SM CLR 30/26 A3008 RMK AO2 SLP184 T03000256
KTPA 251353Z 32007KT 10SM FEW020 31/26 A3008 RMK AO2 SLP185 T03060256 $



Page loaded:  14:32 UTC  |   07:32 AM Pacific  |   08:32 AM Mountain  |   09:32 AM Central  |   10:32 AM Eastern

 

ADVISORIES

FORECASTS

FORECASTS

OBSERVATIONS

USER TOOLS

ABOUT US